createdAt,value
2023-05-08T00:00:05.645Z,994.22
2023-05-08T00:01:09.889Z,994.21
2023-05-08T00:04:15.439Z,994.17
2023-05-08T00:07:31.828Z,994.16
2023-05-08T00:12:20.359Z,994.17
2023-05-08T00:13:22.240Z,994.2
2023-05-08T00:14:23.788Z,994.17
2023-05-08T00:15:25.519Z,994.18
2023-05-08T00:16:27.262Z,994.18
2023-05-08T00:17:29.025Z,994.16
2023-05-08T00:18:30.718Z,994.19
2023-05-08T00:19:32.460Z,994.19
2023-05-08T00:20:34.173Z,994.15
2023-05-08T00:21:36.007Z,994.2
2023-05-08T00:22:37.701Z,994.16
2023-05-08T00:23:39.398Z,994.17
2023-05-08T00:24:41.124Z,994.16
2023-05-08T00:25:42.977Z,994.16
2023-05-08T00:26:44.594Z,994.15
2023-05-08T00:27:46.660Z,994.19
2023-05-08T00:28:48.068Z,994.13
2023-05-08T00:29:49.935Z,994.2
2023-05-08T00:30:51.526Z,994.2
2023-05-08T00:31:53.361Z,994.22
2023-05-08T00:32:55.058Z,994.21
2023-05-08T00:33:56.718Z,994.23
2023-05-08T00:34:58.480Z,994.22
2023-05-08T00:36:00.212Z,994.26
2023-05-08T00:37:01.944Z,994.21
2023-05-08T00:38:03.658Z,994.22
2023-05-08T00:39:05.393Z,994.21
2023-05-08T00:40:07.123Z,994.25
2023-05-08T00:41:08.856Z,994.23
2023-05-08T00:42:10.614Z,994.24
2023-05-08T00:43:12.327Z,994.24
2023-05-08T00:44:14.060Z,994.2
2023-05-08T00:45:15.816Z,994.23
2023-05-08T00:46:17.563Z,994.18
2023-05-08T00:47:19.425Z,994.2
2023-05-08T00:48:20.989Z,994.2
2023-05-08T00:49:22.725Z,994.2
2023-05-08T00:50:24.461Z,994.22
2023-05-08T00:51:26.173Z,994.24
2023-05-08T00:52:27.913Z,994.26
2023-05-08T00:53:29.677Z,994.23
2023-05-08T00:54:31.393Z,994.26
2023-05-08T00:55:33.123Z,994.25
2023-05-08T00:56:34.897Z,994.23
2023-05-08T00:57:36.596Z,994.25
2023-05-08T00:58:38.333Z,994.22
2023-05-08T00:59:40.047Z,994.22
2023-05-08T01:00:41.817Z,994.28
2023-05-08T01:01:43.605Z,994.29
2023-05-08T01:02:45.331Z,994.27
2023-05-08T01:03:47.114Z,994.31
2023-05-08T01:04:48.726Z,994.27
2023-05-08T01:05:50.457Z,994.3
2023-05-08T01:06:52.196Z,994.27
2023-05-08T01:07:53.938Z,994.3
2023-05-08T01:08:55.710Z,994.33
2023-05-08T01:09:57.390Z,994.33
2023-05-08T01:10:59.113Z,994.33
2023-05-08T01:12:00.869Z,994.33
2023-05-08T01:13:02.581Z,994.35
2023-05-08T01:14:04.315Z,994.34
2023-05-08T01:15:06.064Z,994.36
2023-05-08T01:16:07.833Z,994.36
2023-05-08T01:17:09.510Z,994.33
2023-05-08T01:18:11.270Z,994.38
2023-05-08T01:19:12.988Z,994.31
2023-05-08T01:20:14.909Z,994.3
2023-05-08T01:21:16.447Z,994.36
2023-05-08T01:22:18.152Z,994.34
2023-05-08T01:23:19.937Z,994.35
2023-05-08T01:24:21.650Z,994.36
2023-05-08T01:25:23.390Z,994.35
2023-05-08T01:26:25.222Z,994.37
2023-05-08T01:27:26.856Z,994.37
2023-05-08T01:28:28.628Z,994.4
2023-05-08T01:29:30.383Z,994.43
2023-05-08T01:30:32.047Z,994.38
2023-05-08T01:31:33.807Z,994.38
2023-05-08T01:32:35.591Z,994.39
2023-05-08T01:33:37.359Z,994.34
2023-05-08T01:34:39.001Z,994.41
2023-05-08T01:35:40.726Z,994.42
2023-05-08T01:36:42.474Z,994.4
2023-05-08T01:37:44.206Z,994.41
2023-05-08T01:38:45.946Z,994.39
2023-05-08T01:39:47.684Z,994.41
2023-05-08T01:40:49.384Z,994.42
2023-05-08T01:41:51.116Z,994.4
2023-05-08T01:42:52.849Z,994.41
2023-05-08T01:43:54.591Z,994.39
2023-05-08T01:44:56.328Z,994.4
2023-05-08T01:45:58.090Z,994.46
2023-05-08T01:47:00.104Z,994.47
2023-05-08T01:48:01.601Z,994.47
2023-05-08T01:49:03.266Z,994.45
2023-05-08T01:50:05.002Z,994.46
2023-05-08T01:51:06.751Z,994.46
2023-05-08T01:52:08.484Z,994.53
2023-05-08T01:53:10.249Z,994.54
2023-05-08T01:54:11.970Z,994.49
2023-05-08T01:55:13.682Z,994.52
2023-05-08T01:56:15.393Z,994.43
2023-05-08T01:57:17.139Z,994.51
2023-05-08T01:58:18.858Z,994.48
2023-05-08T01:59:20.603Z,994.5
2023-05-08T02:00:22.431Z,994.49
2023-05-08T02:01:24.203Z,994.49
2023-05-08T02:02:25.944Z,994.52
2023-05-08T02:03:27.653Z,994.47
2023-05-08T02:04:29.300Z,994.49
2023-05-08T02:05:31.013Z,994.48
2023-05-08T02:06:32.788Z,994.51
2023-05-08T02:07:34.489Z,994.46
2023-05-08T02:08:36.240Z,994.52
2023-05-08T02:09:37.922Z,994.49
2023-05-08T02:10:39.674Z,994.51
2023-05-08T02:11:41.515Z,994.56
2023-05-08T02:12:43.151Z,994.53
2023-05-08T02:13:44.863Z,994.53
2023-05-08T02:14:46.608Z,994.54
2023-05-08T02:15:48.380Z,994.6
2023-05-08T02:16:50.141Z,994.6
2023-05-08T02:17:51.875Z,994.59
2023-05-08T02:18:53.540Z,994.56
2023-05-08T02:19:55.272Z,994.58
2023-05-08T02:20:57.067Z,994.57
2023-05-08T02:21:58.754Z,994.58
2023-05-08T02:23:00.481Z,994.6
2023-05-08T02:24:02.195Z,994.64
2023-05-08T02:25:03.952Z,994.59
2023-05-08T02:26:05.680Z,994.62
2023-05-08T02:27:07.426Z,994.65
2023-05-08T02:28:09.313Z,994.7
2023-05-08T02:29:10.880Z,994.72
2023-05-08T02:30:12.934Z,994.71
2023-05-08T02:31:14.351Z,994.74
2023-05-08T02:32:16.298Z,994.71
2023-05-08T02:33:17.821Z,994.76
2023-05-08T02:34:19.548Z,994.77
2023-05-08T02:35:21.279Z,994.76
2023-05-08T02:36:23.015Z,994.74
2023-05-08T02:37:24.759Z,994.74
2023-05-08T02:38:26.472Z,994.76
2023-05-08T02:39:28.195Z,994.76
2023-05-08T02:40:29.992Z,994.77
2023-05-08T02:41:31.683Z,994.73
2023-05-08T02:42:33.396Z,994.75
2023-05-08T02:43:35.152Z,994.76
2023-05-08T02:44:36.897Z,994.72
2023-05-08T02:45:38.635Z,994.73
2023-05-08T02:46:40.367Z,994.77
2023-05-08T02:47:42.108Z,994.72
2023-05-08T02:48:43.812Z,994.76
2023-05-08T02:49:45.659Z,994.68
2023-05-08T02:50:47.317Z,994.68
2023-05-08T02:51:48.995Z,994.74
2023-05-08T02:52:50.728Z,994.71
2023-05-08T02:53:52.474Z,994.73
2023-05-08T02:54:54.215Z,994.74
2023-05-08T02:55:55.950Z,994.74
2023-05-08T02:56:57.687Z,994.72
2023-05-08T02:57:59.419Z,994.73
2023-05-08T02:59:01.162Z,994.76
2023-05-08T03:00:02.888Z,994.73
2023-05-08T03:01:04.677Z,994.69
2023-05-08T03:02:06.334Z,994.67
2023-05-08T03:03:08.247Z,994.71
2023-05-08T03:04:09.813Z,994.68
2023-05-08T03:05:11.560Z,994.68
2023-05-08T03:06:13.275Z,994.65
2023-05-08T03:07:15.000Z,994.67
2023-05-08T03:08:16.742Z,994.68
2023-05-08T03:09:18.494Z,994.65
2023-05-08T03:10:20.204Z,994.66
2023-05-08T03:11:21.952Z,994.58
2023-05-08T03:12:23.664Z,994.67
2023-05-08T03:13:25.444Z,994.68
2023-05-08T03:14:27.124Z,994.65
2023-05-08T03:15:28.873Z,994.66
2023-05-08T03:16:30.733Z,994.71
2023-05-08T03:17:32.436Z,994.67
2023-05-08T03:18:34.066Z,994.69
2023-05-08T03:19:35.815Z,994.73
2023-05-08T03:20:37.592Z,994.74
2023-05-08T03:21:39.277Z,994.7
2023-05-08T03:22:41.040Z,994.69
2023-05-08T03:23:42.773Z,994.72
2023-05-08T03:24:44.489Z,994.71
2023-05-08T03:25:46.199Z,994.66
2023-05-08T03:26:47.942Z,994.79
2023-05-08T03:27:49.856Z,994.76
2023-05-08T03:28:51.430Z,994.73
2023-05-08T03:29:53.175Z,994.78
2023-05-08T03:30:54.909Z,994.82
2023-05-08T03:31:56.617Z,994.83
2023-05-08T03:32:58.436Z,994.83
2023-05-08T03:34:00.140Z,994.8
2023-05-08T03:35:01.804Z,994.76
2023-05-08T03:36:03.538Z,994.78
2023-05-08T03:37:05.271Z,994.79
2023-05-08T03:38:07.015Z,994.79
2023-05-08T03:39:08.744Z,994.79
2023-05-08T03:40:10.761Z,994.76
2023-05-08T03:41:12.190Z,994.8
2023-05-08T03:42:13.957Z,994.76
2023-05-08T03:43:15.762Z,994.8
2023-05-08T03:44:17.414Z,994.78
2023-05-08T03:45:19.147Z,994.73
2023-05-08T03:46:20.937Z,994.79
2023-05-08T03:47:22.795Z,994.75
2023-05-08T03:48:24.356Z,994.8
2023-05-08T03:49:26.252Z,994.78
2023-05-08T03:50:27.828Z,994.82
2023-05-08T03:51:29.559Z,994.79
2023-05-08T03:52:31.435Z,994.8
2023-05-08T03:53:33.049Z,994.81
2023-05-08T03:54:34.742Z,994.74
2023-05-08T03:55:36.505Z,994.81
2023-05-08T03:56:38.200Z,994.83
2023-05-08T03:57:39.974Z,994.81
2023-05-08T03:58:41.686Z,994.8
2023-05-08T03:59:43.416Z,994.79
2023-05-08T04:00:45.211Z,994.82
2023-05-08T04:01:46.945Z,994.8
2023-05-08T04:02:48.715Z,994.81
2023-05-08T04:03:50.444Z,994.83
2023-05-08T04:04:52.115Z,994.83
2023-05-08T04:05:53.840Z,994.83
2023-05-08T04:06:55.565Z,994.84
2023-05-08T04:07:57.290Z,994.84
2023-05-08T04:08:59.022Z,994.8
2023-05-08T04:10:00.761Z,994.79
2023-05-08T04:11:02.517Z,994.8
2023-05-08T04:12:04.227Z,994.8
2023-05-08T04:13:06.094Z,994.79
2023-05-08T04:14:07.726Z,994.8
2023-05-08T04:15:09.570Z,994.81
2023-05-08T04:16:11.220Z,994.78
2023-05-08T04:17:12.892Z,994.84
2023-05-08T04:18:14.663Z,994.82
2023-05-08T04:19:16.365Z,994.8
2023-05-08T04:20:18.086Z,994.82
2023-05-08T04:21:19.862Z,994.83
2023-05-08T04:22:21.561Z,994.83
2023-05-08T04:23:23.314Z,994.85
2023-05-08T04:24:25.042Z,994.83
2023-05-08T04:25:26.771Z,994.86
2023-05-08T04:26:28.492Z,994.86
2023-05-08T04:27:30.258Z,994.91
2023-05-08T04:28:31.957Z,994.91
2023-05-08T04:29:33.710Z,994.88
2023-05-08T04:30:35.433Z,994.93
2023-05-08T04:31:37.251Z,994.94
2023-05-08T04:32:40.520Z,994.91
2023-05-08T04:33:40.723Z,994.89
2023-05-08T04:34:42.377Z,994.92
2023-05-08T04:35:44.097Z,994.87
2023-05-08T04:36:45.816Z,994.89
2023-05-08T04:37:47.572Z,994.84
2023-05-08T04:38:49.332Z,994.88
2023-05-08T04:39:51.032Z,994.87
2023-05-08T04:40:52.842Z,994.9
2023-05-08T04:41:54.486Z,994.92
2023-05-08T04:42:56.621Z,994.91
2023-05-08T04:43:57.959Z,994.91
2023-05-08T04:44:59.714Z,994.94
2023-05-08T04:46:01.491Z,994.98
2023-05-08T04:47:03.182Z,994.96
2023-05-08T04:48:04.972Z,994.99
2023-05-08T04:49:06.619Z,994.97
2023-05-08T04:50:08.379Z,994.99
2023-05-08T04:51:10.135Z,995
2023-05-08T04:52:11.847Z,994.99
2023-05-08T04:53:13.573Z,995
2023-05-08T04:54:15.283Z,995.03
2023-05-08T04:55:17.052Z,995.05
2023-05-08T04:56:18.765Z,995.09
2023-05-08T04:57:20.507Z,995.04
2023-05-08T04:58:22.292Z,995.07
2023-05-08T04:59:23.979Z,995.11
2023-05-08T05:00:25.720Z,995.1
2023-05-08T05:01:27.476Z,995.06
2023-05-08T05:02:29.202Z,995.17
2023-05-08T05:03:30.962Z,995.15
2023-05-08T05:04:32.619Z,995.17
2023-05-08T05:05:34.420Z,995.19
2023-05-08T05:06:36.117Z,995.16
2023-05-08T05:07:37.825Z,995.22
2023-05-08T05:08:39.561Z,995.19
2023-05-08T05:09:41.292Z,995.25
2023-05-08T05:10:43.054Z,995.27
2023-05-08T05:11:44.774Z,995.28
2023-05-08T05:12:46.524Z,995.26
2023-05-08T05:13:48.212Z,995.34
2023-05-08T05:14:49.968Z,995.32
2023-05-08T05:15:51.666Z,995.38
2023-05-08T05:16:53.419Z,995.36
2023-05-08T05:17:55.164Z,995.4
2023-05-08T05:18:56.938Z,995.45
2023-05-08T05:19:58.609Z,995.44
2023-05-08T05:21:00.379Z,995.43
2023-05-08T05:22:02.104Z,995.48
2023-05-08T05:23:03.825Z,995.45
2023-05-08T05:24:05.550Z,995.46
2023-05-08T05:25:07.283Z,995.5
2023-05-08T05:26:09.043Z,995.52
2023-05-08T05:27:10.767Z,995.53
2023-05-08T05:28:12.490Z,995.51
2023-05-08T05:29:14.227Z,995.51
2023-05-08T05:30:15.985Z,995.5
2023-05-08T05:31:17.718Z,995.53
2023-05-08T05:32:19.482Z,995.55
2023-05-08T05:33:21.166Z,995.55
2023-05-08T05:34:22.882Z,995.55
2023-05-08T05:35:25.757Z,995.52
2023-05-08T05:36:26.337Z,995.54
2023-05-08T05:37:28.083Z,995.56
2023-05-08T05:38:29.823Z,995.55
2023-05-08T05:39:31.552Z,995.56
2023-05-08T05:40:33.273Z,995.55
2023-05-08T05:41:35.013Z,995.55
2023-05-08T05:42:36.773Z,995.55
2023-05-08T05:43:38.444Z,995.54
2023-05-08T05:44:40.229Z,995.56
2023-05-08T05:45:41.994Z,995.55
2023-05-08T05:46:44.667Z,995.57
2023-05-08T05:47:45.511Z,995.55
2023-05-08T05:48:47.194Z,995.57
2023-05-08T05:49:48.910Z,995.53
2023-05-08T05:50:50.648Z,995.55
2023-05-08T05:51:52.336Z,995.52
2023-05-08T05:52:54.087Z,995.58
2023-05-08T05:53:55.817Z,995.57
2023-05-08T05:54:57.572Z,995.56
2023-05-08T05:55:59.286Z,995.59
2023-05-08T05:57:01.017Z,995.6
2023-05-08T05:58:02.753Z,995.62
2023-05-08T05:59:04.482Z,995.62
2023-05-08T06:00:06.299Z,995.64
2023-05-08T06:01:07.963Z,995.6
2023-05-08T06:02:09.696Z,995.67
2023-05-08T06:03:11.561Z,995.68
2023-05-08T06:04:13.196Z,995.66
2023-05-08T06:05:14.976Z,995.69
2023-05-08T06:06:16.609Z,995.7
2023-05-08T06:07:18.353Z,995.7
2023-05-08T06:08:20.092Z,995.72
2023-05-08T06:09:21.925Z,995.67
2023-05-08T06:10:23.592Z,995.71
2023-05-08T06:11:25.298Z,995.73
2023-05-08T06:12:27.036Z,995.71
2023-05-08T06:13:28.796Z,995.72
2023-05-08T06:14:30.503Z,995.76
2023-05-08T06:15:32.230Z,995.78
2023-05-08T06:16:34.018Z,995.77
2023-05-08T06:17:35.755Z,995.78
2023-05-08T06:18:37.419Z,995.74
2023-05-08T06:19:39.163Z,995.81
2023-05-08T06:20:40.928Z,995.74
2023-05-08T06:21:42.646Z,995.74
2023-05-08T06:22:44.529Z,995.82
2023-05-08T06:23:46.078Z,995.81
2023-05-08T06:24:47.839Z,995.76
2023-05-08T06:25:49.565Z,995.83
2023-05-08T06:26:51.304Z,995.82
2023-05-08T06:27:53.038Z,995.87
2023-05-08T06:28:54.763Z,995.81
2023-05-08T06:29:56.545Z,995.86
2023-05-08T06:30:58.302Z,995.81
2023-05-08T06:31:59.961Z,995.79
2023-05-08T06:33:01.853Z,995.83
2023-05-08T06:34:03.470Z,995.82
2023-05-08T06:35:05.184Z,995.82
2023-05-08T06:36:06.905Z,995.79
2023-05-08T06:37:08.614Z,995.82
2023-05-08T06:38:10.346Z,995.81
2023-05-08T06:39:12.145Z,995.82
2023-05-08T06:40:13.941Z,995.82
2023-05-08T06:41:15.599Z,995.8
2023-05-08T06:42:17.319Z,995.8
2023-05-08T06:43:19.042Z,995.76
2023-05-08T06:44:20.762Z,995.78
2023-05-08T06:45:22.462Z,995.76
2023-05-08T06:46:24.333Z,995.77
2023-05-08T06:47:26.000Z,995.77
2023-05-08T06:48:27.703Z,995.76
2023-05-08T06:49:29.512Z,995.77
2023-05-08T06:50:31.160Z,995.78
2023-05-08T06:51:32.912Z,995.75
2023-05-08T06:52:34.634Z,995.77
2023-05-08T06:53:36.378Z,995.78
2023-05-08T06:54:38.122Z,995.76
2023-05-08T06:55:39.838Z,995.76
2023-05-08T06:56:41.642Z,995.77
2023-05-08T06:57:43.324Z,995.74
2023-05-08T06:58:53.785Z,995.78
2023-05-08T06:59:46.996Z,995.77
2023-05-08T07:00:48.505Z,995.75
2023-05-08T07:01:50.279Z,995.79
2023-05-08T07:02:52.117Z,995.75
2023-05-08T07:03:53.705Z,995.75
2023-05-08T07:04:55.586Z,995.76
2023-05-08T07:05:57.255Z,995.8
2023-05-08T07:06:58.920Z,995.8
2023-05-08T07:08:00.631Z,995.81
2023-05-08T07:09:02.504Z,995.78
2023-05-08T07:10:05.370Z,995.8
2023-05-08T07:11:05.886Z,995.8
2023-05-08T07:12:07.559Z,995.73
2023-05-08T07:13:09.428Z,995.78
2023-05-08T07:14:11.021Z,995.8
2023-05-08T07:15:24.771Z,995.76
2023-05-08T07:16:14.547Z,995.81
2023-05-08T07:17:16.242Z,995.79
2023-05-08T07:18:17.994Z,995.81
2023-05-08T07:19:22.258Z,995.84
2023-05-08T07:20:21.784Z,995.79
2023-05-08T07:21:23.181Z,995.8
2023-05-08T07:22:25.020Z,995.76
2023-05-08T07:23:26.664Z,995.8
2023-05-08T07:24:28.368Z,995.85
2023-05-08T07:25:30.176Z,995.8
2023-05-08T07:26:31.825Z,995.78
2023-05-08T07:27:33.604Z,995.8
2023-05-08T07:28:35.310Z,995.81
2023-05-08T07:29:37.052Z,995.77
2023-05-08T07:30:38.785Z,995.81
2023-05-08T07:31:40.586Z,995.78
2023-05-08T07:32:42.312Z,995.79
2023-05-08T07:33:44.023Z,995.82
2023-05-08T07:34:45.731Z,995.85
2023-05-08T07:35:47.434Z,995.86
2023-05-08T07:36:49.189Z,995.87
2023-05-08T07:37:50.929Z,995.8
2023-05-08T07:38:52.664Z,995.86
2023-05-08T07:39:54.399Z,995.87
2023-05-08T07:40:56.163Z,995.85
2023-05-08T07:41:57.856Z,995.85
2023-05-08T07:42:59.567Z,995.88
2023-05-08T07:44:01.337Z,995.95
2023-05-08T07:45:03.044Z,995.94
2023-05-08T07:46:04.775Z,995.89
2023-05-08T07:47:06.697Z,995.93
2023-05-08T07:48:08.377Z,995.92
2023-05-08T07:49:09.970Z,995.9
2023-05-08T07:50:11.716Z,995.91
2023-05-08T07:51:13.447Z,995.9
2023-05-08T07:52:15.196Z,995.92
2023-05-08T07:53:16.887Z,995.9
2023-05-08T07:54:18.643Z,995.92
2023-05-08T07:55:20.400Z,995.91
2023-05-08T07:56:22.128Z,995.91
2023-05-08T07:57:23.942Z,995.95
2023-05-08T07:58:25.604Z,995.95
2023-05-08T07:59:27.298Z,995.99
2023-05-08T08:00:29.041Z,995.99
2023-05-08T08:01:31.429Z,995.95
2023-05-08T08:02:32.850Z,995.95
2023-05-08T08:03:34.409Z,995.97
2023-05-08T08:04:36.101Z,995.93
2023-05-08T08:05:37.735Z,995.86
2023-05-08T08:06:39.459Z,995.94
2023-05-08T08:07:41.424Z,995.9
2023-05-08T08:08:42.992Z,995.89
2023-05-08T08:09:44.653Z,995.88
2023-05-08T08:10:46.366Z,995.88
2023-05-08T08:11:48.137Z,995.82
2023-05-08T08:12:49.869Z,995.88
2023-05-08T08:13:51.560Z,995.92
2023-05-08T08:14:53.295Z,995.86
2023-05-08T08:15:55.039Z,995.84
2023-05-08T08:16:56.943Z,995.87
2023-05-08T08:17:58.586Z,995.86
2023-05-08T08:19:01.567Z,995.84
2023-05-08T08:20:02.026Z,995.87
2023-05-08T08:21:03.714Z,995.87
2023-05-08T08:22:05.447Z,995.91
2023-05-08T08:23:07.201Z,995.87
2023-05-08T08:24:08.924Z,995.89
2023-05-08T08:25:10.914Z,995.93
2023-05-08T08:26:12.421Z,995.93
2023-05-08T08:27:14.196Z,995.96
2023-05-08T08:28:15.882Z,995.93
2023-05-08T08:29:17.600Z,995.94
2023-05-08T08:30:19.342Z,995.97
2023-05-08T08:31:21.100Z,995.93
2023-05-08T08:32:22.840Z,995.99
2023-05-08T08:33:24.520Z,996
2023-05-08T08:34:26.373Z,996.01
2023-05-08T08:35:27.985Z,996.05
2023-05-08T08:36:29.731Z,996.06
2023-05-08T08:37:31.471Z,996.06
2023-05-08T08:38:33.202Z,996.07
2023-05-08T08:39:34.916Z,996.11
2023-05-08T08:40:36.663Z,996.07
2023-05-08T08:41:38.378Z,996.06
2023-05-08T08:42:40.223Z,996.1
2023-05-08T08:43:41.865Z,996.1
2023-05-08T08:44:43.584Z,996.1
2023-05-08T08:45:45.326Z,996.08
2023-05-08T08:46:47.133Z,996
2023-05-08T08:47:48.877Z,996.1
2023-05-08T08:48:50.503Z,996.12
2023-05-08T08:49:52.253Z,996.07
2023-05-08T08:50:54.244Z,996.12
2023-05-08T08:51:55.892Z,996.13
2023-05-08T08:52:57.462Z,996.09
2023-05-08T08:53:59.360Z,996.15
2023-05-08T08:55:00.914Z,996.11
2023-05-08T08:56:02.965Z,996.16
2023-05-08T08:57:04.377Z,996.12
2023-05-08T08:58:06.116Z,996.15
2023-05-08T08:59:07.893Z,996.18
2023-05-08T09:00:09.593Z,996.19
2023-05-08T09:01:11.323Z,996.17
2023-05-08T09:02:13.274Z,996.2
2023-05-08T09:03:14.905Z,996.19
2023-05-08T09:04:16.665Z,996.19
2023-05-08T09:05:18.281Z,996.18
2023-05-08T09:06:19.990Z,996.21
2023-05-08T09:07:21.803Z,996.22
2023-05-08T09:08:23.445Z,996.2
2023-05-08T09:09:25.172Z,996.21
2023-05-08T09:10:27.060Z,996.24
2023-05-08T09:11:28.650Z,996.23
2023-05-08T09:12:30.372Z,996.21
2023-05-08T09:13:32.303Z,996.24
2023-05-08T09:14:33.912Z,996.24
2023-05-08T09:15:35.601Z,996.22
2023-05-08T09:16:37.381Z,996.24
2023-05-08T09:17:39.089Z,996.25
2023-05-08T09:18:40.781Z,996.27
2023-05-08T09:19:42.531Z,996.27
2023-05-08T09:20:44.297Z,996.29
2023-05-08T09:21:46.000Z,996.28
2023-05-08T09:22:47.732Z,996.28
2023-05-08T09:23:49.436Z,996.29
2023-05-08T09:24:51.220Z,996.27
2023-05-08T09:25:52.921Z,996.29
2023-05-08T09:26:54.669Z,996.29
2023-05-08T09:27:56.374Z,996.33
2023-05-08T09:28:58.109Z,996.3
2023-05-08T09:29:59.863Z,996.34
2023-05-08T09:31:01.594Z,996.32
2023-05-08T09:32:03.337Z,996.31
2023-05-08T09:33:05.104Z,996.27
2023-05-08T09:34:06.801Z,996.29
2023-05-08T09:35:08.556Z,996.27
2023-05-08T09:36:10.270Z,996.38
2023-05-08T09:37:12.035Z,996.35
2023-05-08T09:38:13.713Z,996.33
2023-05-08T09:39:15.607Z,996.39
2023-05-08T09:40:17.212Z,996.41
2023-05-08T09:41:18.928Z,996.42
2023-05-08T09:42:20.853Z,996.4
2023-05-08T09:43:22.414Z,996.4
2023-05-08T09:44:24.140Z,996.4
2023-05-08T09:45:25.908Z,996.37
2023-05-08T09:46:27.733Z,996.38
2023-05-08T09:47:29.348Z,996.43
2023-05-08T09:48:31.069Z,996.39
2023-05-08T09:49:32.797Z,996.42
2023-05-08T09:50:34.529Z,996.43
2023-05-08T09:51:36.257Z,996.45
2023-05-08T09:52:37.994Z,996.43
2023-05-08T09:53:39.738Z,996.47
2023-05-08T09:54:41.469Z,996.41
2023-05-08T09:55:43.206Z,996.43
2023-05-08T09:56:44.948Z,996.41
2023-05-08T09:57:46.778Z,996.34
2023-05-08T09:58:48.406Z,996.4
2023-05-08T09:59:50.143Z,996.4
2023-05-08T10:00:52.022Z,996.41
2023-05-08T10:01:53.896Z,996.44
2023-05-08T10:02:55.450Z,996.44
2023-05-08T10:03:57.100Z,996.37
2023-05-08T10:04:58.864Z,996.43
2023-05-08T10:06:00.555Z,996.42
2023-05-08T10:07:02.266Z,996.42
2023-05-08T10:08:04.061Z,996.39
2023-05-08T10:09:05.749Z,996.43
2023-05-08T10:10:07.503Z,996.39
2023-05-08T10:11:09.202Z,996.4
2023-05-08T10:12:10.934Z,996.4
2023-05-08T10:13:12.867Z,996.4
2023-05-08T10:14:14.405Z,996.43
2023-05-08T10:15:16.257Z,996.41
2023-05-08T10:16:17.933Z,996.4
2023-05-08T10:17:19.829Z,996.34
2023-05-08T10:18:21.339Z,996.39
2023-05-08T10:19:23.167Z,996.41
2023-05-08T10:20:24.798Z,996.39
2023-05-08T10:21:26.545Z,996.4
2023-05-08T10:22:28.275Z,996.37
2023-05-08T10:23:30.017Z,996.38
2023-05-08T10:24:31.747Z,996.34
2023-05-08T10:25:33.569Z,996.38
2023-05-08T10:26:35.229Z,996.39
2023-05-08T10:27:36.941Z,996.39
2023-05-08T10:28:38.753Z,996.45
2023-05-08T10:29:40.407Z,996.41
2023-05-08T10:30:42.188Z,996.38
2023-05-08T10:31:43.947Z,996.4
2023-05-08T10:32:45.681Z,996.4
2023-05-08T10:33:47.342Z,996.39
2023-05-08T10:34:49.098Z,996.36
2023-05-08T10:35:50.812Z,996.39
2023-05-08T10:36:54.031Z,996.37
2023-05-08T10:37:54.279Z,996.36
2023-05-08T10:38:56.017Z,996.39
2023-05-08T10:39:57.743Z,996.37
2023-05-08T10:40:59.497Z,996.36
2023-05-08T10:42:01.255Z,996.29
2023-05-08T10:43:02.970Z,996.32
2023-05-08T10:44:04.717Z,996.33
2023-05-08T10:45:06.427Z,996.26
2023-05-08T10:46:08.387Z,996.32
2023-05-08T10:47:09.919Z,996.29
2023-05-08T10:48:11.717Z,996.33
2023-05-08T10:49:13.348Z,996.3
2023-05-08T10:50:15.462Z,996.24
2023-05-08T10:51:16.844Z,996.29
2023-05-08T10:52:18.554Z,996.28
2023-05-08T10:53:20.294Z,996.3
2023-05-08T10:54:22.009Z,996.27
2023-05-08T10:55:23.743Z,996.26
2023-05-08T10:56:25.496Z,996.23
2023-05-08T10:57:27.235Z,996.2
2023-05-08T10:58:28.945Z,996.26
2023-05-08T10:59:30.704Z,996.21
2023-05-08T11:00:32.479Z,996.19
2023-05-08T11:01:34.212Z,996.22
2023-05-08T11:02:35.992Z,996.2
2023-05-08T11:03:37.700Z,996.18
2023-05-08T11:04:39.497Z,996.23
2023-05-08T11:05:41.089Z,996.21
2023-05-08T11:06:42.837Z,996.19
2023-05-08T11:07:44.567Z,996.21
2023-05-08T11:08:46.553Z,996.2
2023-05-08T11:09:48.014Z,996.2
2023-05-08T11:10:49.749Z,996.2
2023-05-08T11:11:51.494Z,996.17
2023-05-08T11:12:53.267Z,996.23
2023-05-08T11:13:54.960Z,996.16
2023-05-08T11:14:56.706Z,996.17
2023-05-08T11:15:58.460Z,996.17
2023-05-08T11:17:00.177Z,996.18
2023-05-08T11:18:01.931Z,996.18
2023-05-08T11:19:03.630Z,996.17
2023-05-08T11:20:05.368Z,996.15
2023-05-08T11:21:07.105Z,996.17
2023-05-08T11:22:08.825Z,996.19
2023-05-08T11:23:10.604Z,996.08
2023-05-08T11:24:12.292Z,996.16
2023-05-08T11:25:14.043Z,996.11
2023-05-08T11:26:15.752Z,996.12
2023-05-08T11:27:17.500Z,996.11
2023-05-08T11:28:19.243Z,996.05
2023-05-08T11:29:20.964Z,996.05
2023-05-08T11:30:22.730Z,996.04
2023-05-08T11:31:24.439Z,996.04
2023-05-08T11:32:26.266Z,996.02
2023-05-08T11:33:27.926Z,996.04
2023-05-08T11:34:29.641Z,996.05
2023-05-08T11:35:31.371Z,996.02
2023-05-08T11:36:33.127Z,996.03
2023-05-08T11:37:34.875Z,996.04
2023-05-08T11:38:36.660Z,996.05
2023-05-08T11:39:38.310Z,996.1
2023-05-08T11:40:40.035Z,996.06
2023-05-08T11:41:41.765Z,996.12
2023-05-08T11:42:43.503Z,996.12
2023-05-08T11:43:45.238Z,996.09
2023-05-08T11:44:46.966Z,996.1
2023-05-08T11:45:48.727Z,996.1
2023-05-08T11:46:50.583Z,996.09
2023-05-08T11:47:52.232Z,996.07
2023-05-08T11:48:53.896Z,996.07
2023-05-08T11:49:55.745Z,996.1
2023-05-08T11:50:57.359Z,996.09
2023-05-08T11:51:59.123Z,996.05
2023-05-08T11:53:00.829Z,996.04
2023-05-08T11:54:02.573Z,996.09
2023-05-08T11:55:04.318Z,996.09
2023-05-08T11:56:06.045Z,996.07
2023-05-08T11:57:07.778Z,996.1
2023-05-08T11:58:09.534Z,996.11
2023-05-08T11:59:11.233Z,996.11
2023-05-08T12:00:13.472Z,996.13
2023-05-08T12:01:14.958Z,996.09
2023-05-08T12:02:16.596Z,996.09
2023-05-08T12:03:18.486Z,996.1
2023-05-08T12:04:20.135Z,996.11
2023-05-08T12:05:21.628Z,996.11
2023-05-08T12:06:23.357Z,996.09
2023-05-08T12:07:25.130Z,996.07
2023-05-08T12:08:27.087Z,996.1
2023-05-08T12:09:28.666Z,996.07
2023-05-08T12:10:30.317Z,996.06
2023-05-08T12:11:33.202Z,996.1
2023-05-08T12:12:33.759Z,996.09
2023-05-08T12:13:35.708Z,996.07
2023-05-08T12:14:37.230Z,996.07
2023-05-08T12:15:38.974Z,996.03
2023-05-08T12:16:40.752Z,996.03
2023-05-08T12:17:42.544Z,996.02
2023-05-08T12:18:44.170Z,996.05
2023-05-08T12:19:45.902Z,996.04
2023-05-08T12:20:47.693Z,996.05
2023-05-08T12:21:49.408Z,995.97
2023-05-08T12:22:51.174Z,996.04
2023-05-08T12:23:52.841Z,996.06
2023-05-08T12:24:54.576Z,996.07
2023-05-08T12:25:56.290Z,996.04
2023-05-08T12:26:58.056Z,996.06
2023-05-08T12:27:59.788Z,996.02
2023-05-08T12:29:01.556Z,996.03
2023-05-08T12:30:03.260Z,996.06
2023-05-08T12:31:05.075Z,996.06
2023-05-08T12:32:06.719Z,996.05
2023-05-08T12:33:08.521Z,996.05
2023-05-08T12:34:10.180Z,996.05
2023-05-08T12:35:11.951Z,996.1
2023-05-08T12:36:13.668Z,996.06
2023-05-08T12:37:15.376Z,996
2023-05-08T12:38:17.145Z,996.07
2023-05-08T12:39:18.861Z,996.06
2023-05-08T12:40:20.580Z,996.04
2023-05-08T12:41:22.313Z,996.06
2023-05-08T12:42:24.078Z,996.03
2023-05-08T12:43:25.785Z,996.05
2023-05-08T12:44:27.543Z,996.05
2023-05-08T12:45:29.286Z,996.02
2023-05-08T12:46:31.021Z,996.06
2023-05-08T12:47:32.816Z,996.02
2023-05-08T12:48:34.463Z,996.03
2023-05-08T12:49:36.190Z,996.02
2023-05-08T12:50:37.927Z,996.02
2023-05-08T12:51:39.643Z,996.02
2023-05-08T12:52:41.404Z,996.02
2023-05-08T12:53:43.110Z,996.04
2023-05-08T12:54:44.846Z,996.05
2023-05-08T12:55:46.603Z,996.09
2023-05-08T12:56:48.335Z,996.07
2023-05-08T12:57:50.058Z,996.08
2023-05-08T12:58:51.769Z,996.1
2023-05-08T12:59:53.531Z,996.09
2023-05-08T13:00:55.260Z,996.12